Date,TemperatureHighF,TemperatureAvgF,TemperatureLowF,DewpointHighF,DewpointAvgF,DewpointLowF,HumidityHigh,HumidityAvg,HumidityLow,PressureMaxIn,PressureMinIn,WindSpeedMaxMPH,WindSpeedAvgMPH,GustSpeedMaxMPH,PrecipitationSumIn
2013-8-1,87,74,68,76,70,67,97,89,57,29.88,29.75,1,0,1,0.22
2013-8-2,84,74,63,73,68,62,97,84,60,29.92,29.81,0,0,0,0.01
2013-8-3,87,76,67,75,69,66,97,83,55,29.92,29.82,0,0,0,0.00
2013-8-4,87,75,65,71,66,62,97,77,45,29.93,29.82,6,1,11,0.01
2013-8-5,84,73,64,72,66,62,95,81,63,29.97,29.85,5,0,11,0.11
2013-8-6,80,73,68,72,69,67,96,89,74,29.94,29.85,7,1,12,0.01
2013-8-7,77,72,69,74,70,68,97,94,89,29.97,29.90,1,0,12,0.43
2013-8-8,84,76,70,76,72,69,97,90,75,29.95,29.88,6,0,15,0.01
2013-8-9,89,77,69,76,72,68,98,88,63,29.94,29.88,8,0,15,0.04
2013-8-10,89,75,70,77,72,69,97,90,65,30.00,29.92,6,0,11,0.29
2013-8-11,88,76,67,77,71,66,98,88,62,30.02,29.91,4,0,9,0.01
2013-8-12,89,76,68,76,71,67,98,87,63,29.95,29.84,3,0,9,0.02
2013-8-13,87,75,69,75,70,66,97,88,65,29.84,29.70,7,1,9,0.06
2013-8-14,81,73,63,68,63,59,93,73,49,29.97,29.76,4,0,8,0.00
2013-8-15,71,62,56,61,58,54,95,84,68,30.07,29.96,2,0,7,0.00
2013-8-19,75,71,67,70,68,66,97,90,79,30.07,29.98,1,0,7,0.40
2013-8-20,79,71,65,72,68,64,98,90,75,30.09,30.00,0,0,5,0.00
2013-8-21,79,71,66,73,69,65,97,92,80,30.14,29.99,1,0,1,0.01
2013-8-22,87,76,67,76,70,66,98,85,60,30.05,29.88,1,0,8,0.01
2013-8-23,85,72,64,75,69,63,97,89,62,29.99,29.86,6,0,9,0.16
2013-8-24,80,70,61,67,62,59,97,79,56,30.21,29.99,5,0,9,0.00
2013-8-25,80,66,55,66,60,54,98,82,58,30.30,30.18,4,0,9,0.00
2013-8-26,84,69,56,71,63,54,97,82,56,30.24,30.00,3,0,9,0.01
2013-8-27,88,73,60,75,67,59,97,83,56,30.03,29.89,2,0,10,0.01
2013-8-28,89,76,65,77,70,64,97,84,61,29.92,29.80,1,0,10,0.00
2013-8-29,92,76,69,78,71,67,97,86,52,29.89,29.77,9,0,12,0.69
2013-8-30,83,75,70,74,71,69,97,88,70,29.94,29.82,1,0,6,0.04
2013-8-31,87,74,68,77,71,67,97,91,66,29.84,29.76,12,0,12,0.30